NWS205 UUEE-ULLI
Flight info
| Callsign | NWS205 |
|---|---|
| Flight time | 1h 10m |
| Altitude | 32000 |
| Route | TOKNU3H TOKNU L4 NUDKO T561 ODATI T875 GENPA GENPA1V |
| Aircraft | A21N/M-SDE2E3FGHIRWXY/LB1 |
Departure
| Time | 2026-05-06 09:31 |
|---|---|
| Airport | Sheremetyevo International Airport (UUEE) |
Arrival
| Time | 2026-05-06 10:41 |
|---|---|
| Airport | Pulkovo Airport (ULLI) |
| Time | Latitude | Longitude | Altitude | Speed | Heading |
|---|---|---|---|---|---|
| 2026-05-06 08:55 | 55.97794 | 37.41815 | 644 ft | 0 kts | 345° |
| 2026-05-06 09:23 | 55.97793 | 37.41815 | 644 ft | 1 kts | 345° |
| 2026-05-06 09:23 | 55.97775 | 37.41821 | 644 ft | 3 kts | 358° |
| 2026-05-06 09:23 | 55.97756 | 37.41819 | 644 ft | 3 kts | 15° |
| 2026-05-06 09:23 | 55.97737 | 37.41806 | 644 ft | 3 kts | 33° |
| 2026-05-06 09:24 | 55.97722 | 37.41783 | 644 ft | 3 kts | 51° |
| 2026-05-06 09:24 | 55.97711 | 37.41754 | 644 ft | 3 kts | 68° |
| 2026-05-06 09:24 | 55.97708 | 37.41738 | 644 ft | 0 kts | 75° |
| 2026-05-06 09:26 | 55.97711 | 37.41759 | 644 ft | 3 kts | 75° |
| 2026-05-06 09:27 | 55.97722 | 37.41833 | 644 ft | 9 kts | 75° |
| 2026-05-06 09:27 | 55.97740 | 37.41955 | 644 ft | 11 kts | 75° |
| 2026-05-06 09:27 | 55.97740 | 37.42099 | 646 ft | 14 kts | 134° |
| 2026-05-06 09:27 | 55.97692 | 37.42234 | 646 ft | 15 kts | 76° |
| 2026-05-06 09:28 | 55.97721 | 37.42426 | 645 ft | 17 kts | 75° |
| 2026-05-06 09:28 | 55.97752 | 37.42637 | 644 ft | 18 kts | 75° |
| 2026-05-06 09:28 | 55.97786 | 37.42866 | 644 ft | 20 kts | 75° |
| 2026-05-06 09:28 | 55.97823 | 37.43114 | 645 ft | 22 kts | 75° |
| 2026-05-06 09:29 | 55.97865 | 37.43384 | 644 ft | 23 kts | 75° |
| 2026-05-06 09:29 | 55.97908 | 37.43677 | 645 ft | 25 kts | 75° |
| 2026-05-06 09:29 | 55.97949 | 37.43957 | 645 ft | 16 kts | 84° |
| 2026-05-06 09:29 | 55.97864 | 37.44070 | 645 ft | 18 kts | 164° |
| 2026-05-06 09:30 | 55.97772 | 37.43968 | 648 ft | 15 kts | 253° |
| 2026-05-06 09:30 | 55.97770 | 37.43953 | 646 ft | 0 kts | 256° |
| 2026-05-06 09:30 | 55.97711 | 37.43562 | 645 ft | 69 kts | 255° |
| 2026-05-06 09:30 | 55.97530 | 37.42352 | 645 ft | 130 kts | 255° |
| 2026-05-06 09:31 | 55.97257 | 37.40526 | 690 ft | 167 kts | 255° |
| 2026-05-06 09:31 | 55.96980 | 37.38496 | 1231 ft | 171 kts | 255° |
| 2026-05-06 09:31 | 55.96632 | 37.36436 | 1877 ft | 178 kts | 252° |
| 2026-05-06 09:31 | 55.96258 | 37.34236 | 2394 ft | 195 kts | 254° |
| 2026-05-06 09:32 | 55.95863 | 37.31789 | 3045 ft | 220 kts | 255° |
| 2026-05-06 09:32 | 55.95419 | 37.28984 | 3619 ft | 245 kts | 256° |
| 2026-05-06 09:32 | 55.94947 | 37.25972 | 4435 ft | 256 kts | 255° |
| 2026-05-06 09:32 | 55.94465 | 37.22896 | 5505 ft | 259 kts | 255° |
| 2026-05-06 09:33 | 55.93977 | 37.19805 | 6577 ft | 259 kts | 255° |
| 2026-05-06 09:33 | 55.93487 | 37.16710 | 7625 ft | 260 kts | 255° |
| 2026-05-06 09:33 | 55.92997 | 37.13598 | 8565 ft | 261 kts | 255° |
| 2026-05-06 09:33 | 55.92502 | 37.10479 | 9295 ft | 262 kts | 254° |
| 2026-05-06 09:34 | 55.92004 | 37.07352 | 9830 ft | 262 kts | 255° |
| 2026-05-06 09:34 | 55.91661 | 37.04169 | 10512 ft | 264 kts | 268° |
| 2026-05-06 09:34 | 55.91965 | 37.00910 | 11313 ft | 273 kts | 289° |
| 2026-05-06 09:34 | 55.93029 | 36.98070 | 12200 ft | 282 kts | 312° |
| 2026-05-06 09:35 | 55.94605 | 36.95909 | 13094 ft | 289 kts | 320° |
| 2026-05-06 09:35 | 55.96283 | 36.93889 | 13947 ft | 292 kts | 321° |
| 2026-05-06 09:35 | 55.97985 | 36.91864 | 14743 ft | 296 kts | 321° |
| 2026-05-06 09:35 | 55.99776 | 36.89984 | 15511 ft | 305 kts | 331° |
| 2026-05-06 09:36 | 56.01838 | 36.88632 | 15922 ft | 326 kts | 336° |
| 2026-05-06 09:36 | 56.04036 | 36.87371 | 16455 ft | 336 kts | 336° |
| 2026-05-06 09:36 | 56.06279 | 36.86085 | 17170 ft | 340 kts | 336° |
| 2026-05-06 09:36 | 56.08471 | 36.84519 | 17874 ft | 338 kts | 324° |
| 2026-05-06 09:37 | 56.10308 | 36.82056 | 18546 ft | 334 kts | 313° |
| 2026-05-06 09:37 | 56.12013 | 36.79207 | 19223 ft | 337 kts | 311° |
| 2026-05-06 09:37 | 56.13718 | 36.76297 | 19865 ft | 341 kts | 311° |
| 2026-05-06 09:37 | 56.15451 | 36.73357 | 20484 ft | 345 kts | 311° |
| 2026-05-06 09:38 | 56.17208 | 36.70389 | 21096 ft | 349 kts | 311° |
| 2026-05-06 09:38 | 56.18986 | 36.67391 | 21692 ft | 352 kts | 311° |
| 2026-05-06 09:38 | 56.20786 | 36.64364 | 22274 ft | 356 kts | 311° |
| 2026-05-06 09:38 | 56.22605 | 36.61306 | 22808 ft | 361 kts | 311° |
| 2026-05-06 09:39 | 56.24465 | 36.58167 | 23105 ft | 372 kts | 311° |
| 2026-05-06 09:39 | 56.26384 | 36.54923 | 23316 ft | 385 kts | 311° |
| 2026-05-06 09:39 | 56.28369 | 36.51562 | 23498 ft | 398 kts | 311° |
| 2026-05-06 09:39 | 56.30408 | 36.48087 | 23684 ft | 410 kts | 312° |
| 2026-05-06 09:40 | 56.32504 | 36.44541 | 24059 ft | 416 kts | 312° |
| 2026-05-06 09:40 | 56.34619 | 36.40963 | 24518 ft | 419 kts | 312° |
| 2026-05-06 09:40 | 56.38357 | 36.32971 | 25468 ft | 417 kts | 301° |
| 2026-05-06 09:41 | 56.40022 | 36.28663 | 25934 ft | 419 kts | 301° |
| 2026-05-06 09:41 | 56.41695 | 36.24333 | 26368 ft | 422 kts | 301° |
| 2026-05-06 09:41 | 56.43382 | 36.19987 | 26799 ft | 424 kts | 301° |
| 2026-05-06 09:41 | 56.45081 | 36.15615 | 27227 ft | 426 kts | 301° |
| 2026-05-06 09:42 | 56.46791 | 36.11236 | 27722 ft | 425 kts | 301° |
| 2026-05-06 09:42 | 56.48493 | 36.06872 | 28247 ft | 424 kts | 301° |
| 2026-05-06 09:42 | 56.50183 | 36.02525 | 28783 ft | 421 kts | 301° |
| 2026-05-06 09:42 | 56.51866 | 35.98188 | 29292 ft | 420 kts | 301° |
| 2026-05-06 09:43 | 56.53537 | 35.93879 | 29824 ft | 417 kts | 301° |
| 2026-05-06 09:43 | 56.55197 | 35.89595 | 30337 ft | 414 kts | 301° |
| 2026-05-06 09:43 | 56.56845 | 35.85325 | 30813 ft | 413 kts | 301° |
| 2026-05-06 09:43 | 56.58484 | 35.81060 | 31259 ft | 411 kts | 300° |
| 2026-05-06 09:44 | 56.60115 | 35.76804 | 31661 ft | 411 kts | 301° |
| 2026-05-06 09:44 | 56.61751 | 35.72551 | 31843 ft | 410 kts | 301° |
| 2026-05-06 09:44 | 56.65005 | 35.64073 | 31860 ft | 408 kts | 300° |
| 2026-05-06 09:45 | 56.68230 | 35.55591 | 31850 ft | 407 kts | 300° |
| 2026-05-06 09:45 | 56.71444 | 35.47114 | 31843 ft | 407 kts | 300° |
| 2026-05-06 09:46 | 56.74626 | 35.38685 | 31841 ft | 406 kts | 300° |
| 2026-05-06 09:46 | 56.77823 | 35.30194 | 31845 ft | 406 kts | 300° |
| 2026-05-06 09:47 | 56.81013 | 35.21698 | 31843 ft | 406 kts | 300° |
| 2026-05-06 09:47 | 56.84189 | 35.13204 | 31838 ft | 405 kts | 300° |
| 2026-05-06 09:48 | 56.87358 | 35.04689 | 31836 ft | 405 kts | 300° |
| 2026-05-06 09:48 | 56.90630 | 34.96309 | 31835 ft | 408 kts | 307° |
| 2026-05-06 09:49 | 56.95101 | 34.89725 | 31853 ft | 418 kts | 321° |
| 2026-05-06 09:49 | 56.99994 | 34.83959 | 31838 ft | 419 kts | 321° |
| 2026-05-06 09:50 | 57.04867 | 34.78151 | 31839 ft | 417 kts | 321° |
| 2026-05-06 09:50 | 57.09724 | 34.72312 | 31836 ft | 417 kts | 321° |
| 2026-05-06 09:51 | 57.14581 | 34.66453 | 31843 ft | 417 kts | 321° |
| 2026-05-06 09:51 | 57.19430 | 34.60582 | 31839 ft | 417 kts | 321° |
| 2026-05-06 09:52 | 57.24269 | 34.54711 | 31839 ft | 416 kts | 321° |
| 2026-05-06 09:52 | 57.29111 | 34.48816 | 31836 ft | 417 kts | 321° |
| 2026-05-06 09:53 | 57.33952 | 34.42901 | 31836 ft | 417 kts | 321° |
| 2026-05-06 09:53 | 57.38789 | 34.36973 | 31836 ft | 417 kts | 321° |
| 2026-05-06 09:54 | 57.43615 | 34.31038 | 31843 ft | 416 kts | 320° |
| 2026-05-06 09:54 | 57.48443 | 34.25079 | 31837 ft | 416 kts | 320° |
| 2026-05-06 09:55 | 57.53262 | 34.19117 | 31838 ft | 416 kts | 320° |
| 2026-05-06 09:55 | 57.58074 | 34.13142 | 31850 ft | 416 kts | 320° |
| 2026-05-06 09:56 | 57.62882 | 34.07151 | 31857 ft | 415 kts | 320° |
| 2026-05-06 09:56 | 57.67681 | 34.01147 | 31883 ft | 415 kts | 320° |
| 2026-05-06 09:57 | 57.72483 | 33.95136 | 31890 ft | 415 kts | 320° |
| 2026-05-06 09:57 | 57.77275 | 33.89112 | 31895 ft | 415 kts | 320° |
| 2026-05-06 09:58 | 57.82056 | 33.83065 | 31900 ft | 415 kts | 320° |
| 2026-05-06 09:58 | 57.86811 | 33.77026 | 31901 ft | 415 kts | 319° |
| 2026-05-06 09:59 | 57.91328 | 33.70357 | 31899 ft | 412 kts | 315° |
| 2026-05-06 09:59 | 57.95768 | 33.63559 | 31898 ft | 411 kts | 315° |
| 2026-05-06 10:00 | 58.00201 | 33.56761 | 31898 ft | 411 kts | 315° |
| 2026-05-06 10:00 | 58.04637 | 33.49983 | 31899 ft | 410 kts | 315° |
| 2026-05-06 10:01 | 58.09056 | 33.43198 | 31899 ft | 409 kts | 315° |
| 2026-05-06 10:01 | 58.13458 | 33.36435 | 31911 ft | 407 kts | 315° |
| 2026-05-06 10:02 | 58.17842 | 33.29667 | 31910 ft | 406 kts | 314° |
| 2026-05-06 10:02 | 58.22203 | 33.22901 | 31908 ft | 405 kts | 314° |
| 2026-05-06 10:03 | 58.26566 | 33.16162 | 31911 ft | 404 kts | 314° |
| 2026-05-06 10:03 | 58.30895 | 33.09420 | 31913 ft | 402 kts | 314° |
| 2026-05-06 10:04 | 58.35213 | 33.02693 | 31910 ft | 401 kts | 314° |
| 2026-05-06 10:04 | 58.39509 | 32.95967 | 31909 ft | 398 kts | 314° |
| 2026-05-06 10:05 | 58.43753 | 32.89291 | 31595 ft | 395 kts | 313° |
| 2026-05-06 10:05 | 58.45875 | 32.85941 | 31173 ft | 394 kts | 313° |
| 2026-05-06 10:05 | 58.47984 | 32.82614 | 30617 ft | 392 kts | 313° |
| 2026-05-06 10:06 | 58.50083 | 32.79299 | 30036 ft | 391 kts | 313° |
| 2026-05-06 10:06 | 58.52176 | 32.75987 | 29439 ft | 390 kts | 313° |
| 2026-05-06 10:06 | 58.54255 | 32.72688 | 28872 ft | 387 kts | 313° |
| 2026-05-06 10:06 | 58.56321 | 32.69405 | 28322 ft | 385 kts | 313° |
| 2026-05-06 10:07 | 58.58373 | 32.66137 | 27798 ft | 381 kts | 313° |
| 2026-05-06 10:07 | 58.60403 | 32.62903 | 27282 ft | 378 kts | 313° |
| 2026-05-06 10:07 | 58.62420 | 32.59677 | 26730 ft | 376 kts | 313° |
| 2026-05-06 10:07 | 58.64426 | 32.56472 | 26191 ft | 374 kts | 312° |
| 2026-05-06 10:08 | 58.66416 | 32.53287 | 25662 ft | 371 kts | 312° |
| 2026-05-06 10:08 | 58.67753 | 32.51137 | 25307 ft | 370 kts | 312° |
| 2026-05-06 10:08 | 58.69708 | 32.47957 | 24791 ft | 367 kts | 311° |
| 2026-05-06 10:08 | 58.71652 | 32.44786 | 24256 ft | 365 kts | 311° |
| 2026-05-06 10:09 | 58.73566 | 32.41682 | 23732 ft | 364 kts | 311° |
| 2026-05-06 10:09 | 58.75497 | 32.38558 | 23210 ft | 362 kts | 311° |
| 2026-05-06 10:09 | 58.77430 | 32.35464 | 22713 ft | 360 kts | 312° |
| 2026-05-06 10:09 | 58.79377 | 32.32360 | 22189 ft | 358 kts | 312° |
| 2026-05-06 10:10 | 58.81261 | 32.29335 | 21667 ft | 357 kts | 312° |
| 2026-05-06 10:10 | 58.83160 | 32.26273 | 21142 ft | 355 kts | 311° |
| 2026-05-06 10:10 | 58.85045 | 32.23216 | 20627 ft | 353 kts | 311° |
| 2026-05-06 10:10 | 58.86918 | 32.20170 | 20106 ft | 351 kts | 311° |
| 2026-05-06 10:11 | 58.88780 | 32.17138 | 19639 ft | 348 kts | 311° |
| 2026-05-06 10:11 | 58.90619 | 32.14137 | 19172 ft | 346 kts | 311° |
| 2026-05-06 10:11 | 58.92453 | 32.11140 | 18708 ft | 344 kts | 311° |
| 2026-05-06 10:11 | 58.94276 | 32.08155 | 18271 ft | 342 kts | 311° |
| 2026-05-06 10:12 | 58.96086 | 32.05186 | 17845 ft | 340 kts | 311° |
| 2026-05-06 10:12 | 58.97888 | 32.02229 | 17415 ft | 339 kts | 311° |
| 2026-05-06 10:12 | 58.99687 | 31.99272 | 16950 ft | 339 kts | 311° |
| 2026-05-06 10:12 | 59.01485 | 31.96312 | 16514 ft | 339 kts | 311° |
| 2026-05-06 10:13 | 59.03280 | 31.93354 | 16079 ft | 338 kts | 311° |
| 2026-05-06 10:13 | 59.05071 | 31.90398 | 15646 ft | 337 kts | 311° |
| 2026-05-06 10:13 | 59.06853 | 31.87453 | 15216 ft | 336 kts | 312° |
| 2026-05-06 10:13 | 59.08628 | 31.84514 | 14789 ft | 335 kts | 312° |
| 2026-05-06 10:14 | 59.10395 | 31.81567 | 14345 ft | 333 kts | 311° |
| 2026-05-06 10:14 | 59.12079 | 31.78489 | 13923 ft | 331 kts | 309° |
| 2026-05-06 10:14 | 59.13729 | 31.75368 | 13496 ft | 330 kts | 308° |
| 2026-05-06 10:14 | 59.15372 | 31.72250 | 13068 ft | 329 kts | 308° |
| 2026-05-06 10:15 | 59.17009 | 31.69141 | 12664 ft | 328 kts | 309° |
| 2026-05-06 10:15 | 59.18636 | 31.66048 | 12260 ft | 327 kts | 309° |
| 2026-05-06 10:15 | 59.20254 | 31.62974 | 11807 ft | 321 kts | 309° |
| 2026-05-06 10:15 | 59.21842 | 31.59953 | 11418 ft | 318 kts | 309° |
| 2026-05-06 10:16 | 59.23425 | 31.56934 | 11027 ft | 316 kts | 310° |
| 2026-05-06 10:16 | 59.24969 | 31.53988 | 10795 ft | 305 kts | 310° |
| 2026-05-06 10:16 | 59.26455 | 31.51156 | 10623 ft | 292 kts | 310° |
| 2026-05-06 10:16 | 59.27876 | 31.48439 | 10486 ft | 280 kts | 310° |
| 2026-05-06 10:17 | 59.29222 | 31.45860 | 10324 ft | 269 kts | 310° |
| 2026-05-06 10:17 | 59.30559 | 31.43290 | 10067 ft | 263 kts | 310° |
| 2026-05-06 10:17 | 59.31855 | 31.40796 | 9734 ft | 260 kts | 311° |
| 2026-05-06 10:17 | 59.33144 | 31.38307 | 9402 ft | 261 kts | 311° |
| 2026-05-06 10:18 | 59.34444 | 31.35798 | 9075 ft | 263 kts | 312° |
| 2026-05-06 10:18 | 59.35750 | 31.33279 | 8756 ft | 263 kts | 313° |
| 2026-05-06 10:18 | 59.37058 | 31.30754 | 8441 ft | 264 kts | 313° |
| 2026-05-06 10:18 | 59.38368 | 31.28221 | 8136 ft | 265 kts | 313° |
| 2026-05-06 10:19 | 59.39680 | 31.25684 | 7837 ft | 264 kts | 313° |
| 2026-05-06 10:19 | 59.40982 | 31.23154 | 7536 ft | 263 kts | 313° |
| 2026-05-06 10:19 | 59.42287 | 31.20627 | 7228 ft | 264 kts | 313° |
| 2026-05-06 10:19 | 59.43593 | 31.18094 | 6923 ft | 262 kts | 313° |
| 2026-05-06 10:20 | 59.44880 | 31.15591 | 6603 ft | 261 kts | 314° |
| 2026-05-06 10:20 | 59.46161 | 31.13091 | 6301 ft | 258 kts | 313° |
| 2026-05-06 10:20 | 59.47434 | 31.10612 | 5987 ft | 257 kts | 313° |
| 2026-05-06 10:20 | 59.48705 | 31.08136 | 5687 ft | 258 kts | 314° |
| 2026-05-06 10:21 | 59.49977 | 31.05655 | 5390 ft | 257 kts | 314° |
| 2026-05-06 10:21 | 59.51237 | 31.03191 | 5102 ft | 253 kts | 313° |
| 2026-05-06 10:21 | 59.52429 | 31.00667 | 4852 ft | 250 kts | 309° |
| 2026-05-06 10:21 | 59.53557 | 30.98089 | 4668 ft | 246 kts | 309° |
| 2026-05-06 10:22 | 59.54647 | 30.95584 | 4501 ft | 242 kts | 309° |
| 2026-05-06 10:22 | 59.55727 | 30.93104 | 4332 ft | 235 kts | 309° |
| 2026-05-06 10:22 | 59.56784 | 30.90682 | 4166 ft | 230 kts | 309° |
| 2026-05-06 10:22 | 59.57706 | 30.88564 | 4018 ft | 230 kts | 309° |
| 2026-05-06 10:23 | 59.58591 | 30.86535 | 3869 ft | 229 kts | 309° |
| 2026-05-06 10:23 | 59.59623 | 30.84162 | 3701 ft | 228 kts | 309° |
| 2026-05-06 10:23 | 59.60655 | 30.81787 | 3537 ft | 228 kts | 309° |
| 2026-05-06 10:23 | 59.61687 | 30.79410 | 3376 ft | 232 kts | 309° |
| 2026-05-06 10:24 | 59.62783 | 30.76884 | 3241 ft | 245 kts | 309° |
| 2026-05-06 10:24 | 59.63893 | 30.74325 | 3121 ft | 245 kts | 309° |
| 2026-05-06 10:24 | 59.65000 | 30.71771 | 2985 ft | 245 kts | 309° |
| 2026-05-06 10:24 | 59.66105 | 30.69219 | 2865 ft | 244 kts | 309° |
| 2026-05-06 10:25 | 59.67294 | 30.66801 | 2737 ft | 245 kts | 314° |
| 2026-05-06 10:25 | 59.68508 | 30.64428 | 2642 ft | 245 kts | 314° |
| 2026-05-06 10:25 | 59.69719 | 30.62044 | 2514 ft | 246 kts | 314° |
| 2026-05-06 10:25 | 59.70979 | 30.59560 | 2375 ft | 278 kts | 314° |
| 2026-05-06 10:26 | 59.72367 | 30.56812 | 2312 ft | 278 kts | 313° |
| 2026-05-06 10:26 | 59.73701 | 30.54174 | 2124 ft | 262 kts | 314° |
| 2026-05-06 10:26 | 59.74890 | 30.51591 | 2093 ft | 249 kts | 302° |
| 2026-05-06 10:26 | 59.75680 | 30.48597 | 1978 ft | 245 kts | 294° |
| 2026-05-06 10:27 | 59.76371 | 30.45509 | 1931 ft | 244 kts | 292° |
| 2026-05-06 10:27 | 59.76969 | 30.42362 | 1638 ft | 243 kts | 287° |
| 2026-05-06 10:27 | 59.77406 | 30.39130 | 1310 ft | 242 kts | 288° |
| 2026-05-06 10:27 | 59.77878 | 30.35943 | 958 ft | 240 kts | 287° |
| 2026-05-06 10:28 | 59.78431 | 30.32796 | 1158 ft | 250 kts | 287° |
| 2026-05-06 10:28 | 59.78980 | 30.29438 | 2116 ft | 254 kts | 287° |
| 2026-05-06 10:28 | 59.79497 | 30.26396 | 2759 ft | 217 kts | 288° |
| 2026-05-06 10:28 | 59.79973 | 30.23713 | 2930 ft | 196 kts | 289° |
| 2026-05-06 10:29 | 59.80489 | 30.20939 | 3087 ft | 233 kts | 289° |
| 2026-05-06 10:29 | 59.81096 | 30.17836 | 3676 ft | 244 kts | 291° |
| 2026-05-06 10:29 | 59.81758 | 30.14709 | 3936 ft | 247 kts | 293° |
| 2026-05-06 10:29 | 59.82309 | 30.11489 | 3982 ft | 247 kts | 281° |
| 2026-05-06 10:30 | 59.82465 | 30.08099 | 3991 ft | 246 kts | 274° |
| 2026-05-06 10:30 | 59.82290 | 30.04734 | 3979 ft | 248 kts | 252° |
| 2026-05-06 10:30 | 59.81363 | 30.01853 | 3987 ft | 252 kts | 226° |
| 2026-05-06 10:30 | 59.79963 | 29.99738 | 4004 ft | 255 kts | 217° |
| 2026-05-06 10:31 | 59.78378 | 29.98143 | 4000 ft | 259 kts | 199° |
| 2026-05-06 10:31 | 59.76576 | 29.97914 | 3994 ft | 265 kts | 174° |
| 2026-05-06 10:31 | 59.74816 | 29.98914 | 3995 ft | 269 kts | 158° |
| 2026-05-06 10:31 | 59.73314 | 30.01135 | 4005 ft | 274 kts | 131° |
| 2026-05-06 10:32 | 59.72423 | 30.04525 | 4002 ft | 276 kts | 106° |
| 2026-05-06 10:32 | 59.72040 | 30.08203 | 4017 ft | 277 kts | 100° |
| 2026-05-06 10:32 | 59.71706 | 30.11956 | 4033 ft | 277 kts | 100° |
| 2026-05-06 10:32 | 59.71358 | 30.15712 | 4032 ft | 277 kts | 101° |
| 2026-05-06 10:33 | 59.70991 | 30.19498 | 4014 ft | 276 kts | 101° |
| 2026-05-06 10:33 | 59.70702 | 30.23209 | 4003 ft | 277 kts | 96° |
| 2026-05-06 10:33 | 59.70494 | 30.27000 | 4033 ft | 276 kts | 96° |
| 2026-05-06 10:33 | 59.70277 | 30.30790 | 4029 ft | 277 kts | 97° |
| 2026-05-06 10:34 | 59.70008 | 30.34564 | 3947 ft | 277 kts | 98° |
| 2026-05-06 10:34 | 59.69689 | 30.38330 | 3920 ft | 277 kts | 100° |
| 2026-05-06 10:34 | 59.69341 | 30.42071 | 3716 ft | 275 kts | 101° |
| 2026-05-06 10:34 | 59.68978 | 30.45774 | 3459 ft | 272 kts | 101° |
| 2026-05-06 10:35 | 59.68612 | 30.49408 | 3216 ft | 267 kts | 102° |
| 2026-05-06 10:35 | 59.68266 | 30.53030 | 2978 ft | 269 kts | 96° |
| 2026-05-06 10:35 | 59.68487 | 30.56678 | 2607 ft | 270 kts | 65° |
| 2026-05-06 10:35 | 59.69622 | 30.59554 | 2295 ft | 268 kts | 33° |
| 2026-05-06 10:36 | 59.71326 | 30.60811 | 2027 ft | 261 kts | 0° |
| 2026-05-06 10:36 | 59.73038 | 30.60084 | 1953 ft | 246 kts | 330° |
| 2026-05-06 10:36 | 59.74214 | 30.57882 | 2053 ft | 226 kts | 304° |
| 2026-05-06 10:36 | 59.74965 | 30.55269 | 2028 ft | 208 kts | 293° |
| 2026-05-06 10:37 | 59.75423 | 30.52690 | 2112 ft | 193 kts | 284° |
| 2026-05-06 10:37 | 59.75772 | 30.50203 | 2015 ft | 180 kts | 285° |
| 2026-05-06 10:37 | 59.76097 | 30.47982 | 2067 ft | 155 kts | 286° |
| 2026-05-06 10:37 | 59.76391 | 30.46008 | 1878 ft | 145 kts | 285° |
| 2026-05-06 10:38 | 59.76658 | 30.44220 | 1688 ft | 128 kts | 285° |
| 2026-05-06 10:38 | 59.76908 | 30.42538 | 1553 ft | 126 kts | 285° |
| 2026-05-06 10:38 | 59.77159 | 30.40855 | 1417 ft | 127 kts | 285° |
| 2026-05-06 10:38 | 59.77410 | 30.39166 | 1227 ft | 128 kts | 285° |
| 2026-05-06 10:39 | 59.77662 | 30.37478 | 1058 ft | 127 kts | 285° |
| 2026-05-06 10:39 | 59.77912 | 30.35800 | 887 ft | 127 kts | 285° |
| 2026-05-06 10:39 | 59.78162 | 30.34122 | 719 ft | 127 kts | 285° |
| 2026-05-06 10:39 | 59.78412 | 30.32440 | 566 ft | 127 kts | 286° |
| 2026-05-06 10:40 | 59.78663 | 30.30758 | 385 ft | 128 kts | 285° |
| 2026-05-06 10:40 | 59.78914 | 30.29072 | 217 ft | 128 kts | 285° |
| 2026-05-06 10:40 | 59.79166 | 30.27374 | 97 ft | 126 kts | 286° |
| 2026-05-06 10:40 | 59.79393 | 30.25852 | 90 ft | 98 kts | 287° |
| 2026-05-06 10:41 | 59.79544 | 30.24875 | 91 ft | 54 kts | 287° |
| 2026-05-06 10:41 | 59.79641 | 30.24202 | 94 ft | 50 kts | 286° |
| 2026-05-06 10:41 | 59.79741 | 30.23540 | 88 ft | 50 kts | 287° |
| 2026-05-06 10:41 | 59.79910 | 30.23059 | 89 ft | 20 kts | 323° |
| 2026-05-06 10:42 | 59.79967 | 30.23199 | 90 ft | 21 kts | 107° |
| 2026-05-06 10:42 | 59.79926 | 30.23490 | 91 ft | 23 kts | 104° |
| 2026-05-06 10:42 | 59.79879 | 30.23799 | 90 ft | 24 kts | 107° |
| 2026-05-06 10:42 | 59.79828 | 30.24129 | 89 ft | 26 kts | 103° |
| 2026-05-06 10:43 | 59.79778 | 30.24480 | 89 ft | 27 kts | 106° |
| 2026-05-06 10:43 | 59.79724 | 30.24849 | 89 ft | 29 kts | 105° |
| 2026-05-06 10:43 | 59.79675 | 30.25183 | 89 ft | 25 kts | 106° |
| 2026-05-06 10:44 | 59.79574 | 30.25857 | 89 ft | 20 kts | 106° |
| 2026-05-06 10:44 | 59.79636 | 30.26020 | 89 ft | 18 kts | 19° |
| 2026-05-06 10:44 | 59.79726 | 30.26095 | 88 ft | 14 kts | 16° |
| 2026-05-06 10:44 | 59.79785 | 30.26161 | 87 ft | 10 kts | 74° |
| 2026-05-06 10:45 | 59.79776 | 30.26261 | 87 ft | 5 kts | 102° |
| 2026-05-06 10:45 | 59.79774 | 30.26279 | 87 ft | 0 kts | 106° |
| 2026-05-06 10:45 | 59.79773 | 30.26285 | 87 ft | 0 kts | 103° |
| 2026-05-06 10:45 | 59.79773 | 30.26286 | 87 ft | 0 kts | 103° |